Wan Hai 232 — S6EL2 — position and weather

sailwx.info

Track history (hours):
 
Tides and Currents Weather Stations Pressure Air Temp Water Temp Dewpoint Dewpoint Depression Visibility Wind Speed Wind Dir Waves Ship Positions

Wan Hai 232

Last reported at 2018-Feb-21 17:37 UTC. Time now 2018-Feb-22 18:36 UTC.
Position N 23°12' E 117°35'.

Length 191 m; draft 8.1 m.

Type: Cargo ship. MMSI: 565131000.

Date/timePositionNaut miles runAvg speedWind from/ knotsBaromVisibWave heightAir tempDewpointWater temp
2018-Feb-21 17:37N 23°12' E 117°35'616.3
2018-Feb-21 17:16N 23°15' E 117°41'516.3
2018-Feb-21 16:57N 23°17' E 117°46'916.0
2018-Feb-21 16:25N 23°21' E 117°54'184 7.7
2018-Feb-20 16:30N 24°53' E 120°49'1416.7
2018-Feb-20 15:39N 25°05' E 120°58'917.2
2018-Feb-20 15:08N 25°10' E 121°06'418.2
2018-Feb-20 14:55N 25°12' E 121°10'716.8
2018-Feb-20 14:30N 25°14' E 121°17'613.0
2018-Feb-20 14:00N 25°09' E 121°23'1 1.1
2018-Feb-20 13:27N 25°10' E 121°23'0 0.0
2018-Feb-20 12:54N 25°10' E 121°23'0 0.0
2018-Feb-20 09:36N 25°10' E 121°23'0 0.0
2018-Feb-20 09:09N 25°10' E 121°23'0 0.0
2018-Feb-20 08:48N 25°10' E 121°23'0 0.0
2018-Feb-20 08:27N 25°10' E 121°23'0 0.0
2018-Feb-20 07:54N 25°10' E 121°23'0 0.0
2018-Feb-20 07:30N 25°10' E 121°23'0 0.0
2018-Feb-20 06:57N 25°10' E 121°23'0 0.0
2018-Feb-20 06:30N 25°10' E 121°23'0 0.0
2018-Feb-20 06:00N 25°10' E 121°23'0 0.0
2018-Feb-20 05:27N 25°10' E 121°23'1 1.8
2018-Feb-20 05:00N 25°09' E 121°23'4 8.9
2018-Feb-20 04:30N 25°11' E 121°18'713.1
2018-Feb-20 03:59N 25°18' E 121°17'66316.9
2018-Feb-18 12:45N 33°40' E 129°34'617.1
2018-Feb-18 12:23N 33°40' E 129°42'717.2
2018-Feb-18 11:59N 33°40' E 129°50'817.3
2018-Feb-18 11:30N 33°40' E 129°60'917.2
2018-Feb-18 11:00N 33°44' E 130°10'713.8
2018-Feb-18 10:30N 33°40' E 130°17'510.9
2018-Feb-18 10:00N 33°39' E 130°23'1 2.4
2018-Feb-18 09:29N 33°39' E 130°24'0 0.0
2018-Feb-18 08:59N 33°39' E 130°24'0 0.0
2018-Feb-18 08:29N 33°39' E 130°24'0 0.0
2018-Feb-18 07:59N 33°39' E 130°24'0 0.0
2018-Feb-18 07:29N 33°39' E 130°24'0 0.0
2018-Feb-18 06:59N 33°39' E 130°24'0 0.0
2018-Feb-18 06:29N 33°39' E 130°24'0 0.0
2018-Feb-18 05:59N 33°39' E 130°24'0 0.0
2018-Feb-18 05:29N 33°39' E 130°24'0 0.0
2018-Feb-18 04:59N 33°39' E 130°24'0 0.0
2018-Feb-18 04:29N 33°39' E 130°24'0 0.1
2018-Feb-18 03:59N 33°39' E 130°24'0 0.1
2018-Feb-18 03:29N 33°39' E 130°24'0 0.0
2018-Feb-18 02:59N 33°39' E 130°24'0 0.0
2018-Feb-18 02:29N 33°39' E 130°24'0 0.0
2018-Feb-18 01:59N 33°39' E 130°24'0 0.0
2018-Feb-18 01:29N 33°39' E 130°24'0 0.0
2018-Feb-18 00:59N 33°39' E 130°24'0 0.0
2018-Feb-18 00:29N 33°39' E 130°24'0 0.0
2018-Feb-17 23:59N 33°39' E 130°24'0 0.0
2018-Feb-17 23:30N 33°39' E 130°24'2 3.8
2018-Feb-17 23:00N 33°38' E 130°22'5 9.8
2018-Feb-17 22:30N 33°39' E 130°16'4 8.8
2018-Feb-17 22:00N 33°43' E 130°15'0 0.9
2018-Feb-17 21:30N 33°44' E 130°15'4 7.6
2018-Feb-17 21:00N 33°47' E 130°17'713.5
2018-Feb-17 20:30N 33°54' E 130°20'713.2
2018-Feb-17 20:00N 33°58' E 130°25'713.0
2018-Feb-17 19:30N 33°60' E 130°33'713.2
2018-Feb-17 19:00N 34°02' E 130°40'612.2
2018-Feb-17 18:30N 34°03' E 130°48'612.0
2018-Feb-17 18:00N 33°58' E 130°53'4 8.2
2018-Feb-17 17:30N 33°55' E 130°54'5 9.0
2018-Feb-17 17:00N 33°58' E 130°58'2 4.1
2018-Feb-17 16:30N 33°58' E 131°00'0 0.0
2018-Feb-17 15:57N 33°58' E 131°00'0 0.0
2018-Feb-17 15:30N 33°58' E 131°00'0 0.0
2018-Feb-17 15:00N 33°58' E 131°00'0 0.0
2018-Feb-17 14:30N 33°58' E 131°00'0 0.0
2018-Feb-17 14:00N 33°58' E 131°00'0 0.0
2018-Feb-17 13:30N 33°58' E 131°00'0 0.0
2018-Feb-17 13:00N 33°58' E 131°00'0 0.0
2018-Feb-17 12:27N 33°58' E 131°00'0 0.0
2018-Feb-17 12:00N 33°58' E 131°00'0 0.0
2018-Feb-17 11:30N 33°58' E 131°00'0 0.0
2018-Feb-17 11:00N 33°58' E 131°00'0 0.0
2018-Feb-17 10:30N 33°58' E 131°00'0 0.0
2018-Feb-17 10:00N 33°58' E 131°00'0 0.0
2018-Feb-17 09:30N 33°58' E 131°00'0 0.0
2018-Feb-17 09:00N 33°58' E 131°00'0 0.0
2018-Feb-17 08:27N 33°58' E 131°00'0 0.1
2018-Feb-17 08:00N 33°58' E 131°00'2 4.8
2018-Feb-17 07:30N 33°57' E 131°03'4 8.9
2018-Feb-17 07:00N 33°54' E 131°07'5 9.3
2018-Feb-17 06:30N 33°52' E 131°12'613.0
2018-Feb-17 06:00N 33°51' E 131°20'715.0
2018-Feb-17 05:30N 33°49' E 131°28'714.5
2018-Feb-17 05:00N 33°47' E 131°37'713.4
2018-Feb-17 04:30N 33°44' E 131°44'713.9
2018-Feb-17 04:00N 33°38' E 131°48'714.0
2018-Feb-17 03:31N 33°32' E 131°52'714.5
2018-Feb-17 03:00N 33°25' E 131°56'713.9
2018-Feb-17 02:31N 33°19' E 131°59'714.7
2018-Feb-17 02:00N 33°13' E 132°05'6512.6
2018-Feb-16 20:51N 32°45' E 133°15'8816.1
2018-Feb-16 15:22N 33°37' E 134°40'616.8
2018-Feb-16 15:00N 33°42' E 134°45'917.1
2018-Feb-16 14:30N 33°48' E 134°51'816.8
2018-Feb-16 14:00N 33°56' E 134°54'816.6
2018-Feb-16 13:30N 34°04' E 134°56'816.2
2018-Feb-16 13:00N 34°12' E 134°58'510.9
2018-Feb-16 12:30N 34°18' E 134°59'713.7
2018-Feb-16 12:00N 34°24' E 135°03'816.3
2018-Feb-16 11:31N 34°29' E 135°10'816.4
2018-Feb-16 11:01N 34°36' E 135°16'510.2
2018-Feb-16 10:30N 34°41' E 135°15'0 0.0
2018-Feb-16 10:00N 34°41' E 135°15'0 0.1
2018-Feb-16 09:30N 34°41' E 135°15'0 0.0
2018-Feb-16 09:00N 34°41' E 135°15'0 0.0
2018-Feb-16 08:30N 34°41' E 135°15'0 0.1
2018-Feb-16 08:00N 34°41' E 135°15'0 0.1
2018-Feb-16 07:30N 34°41' E 135°15'0 0.0
2018-Feb-16 07:00N 34°41' E 135°15'0 0.0
2018-Feb-16 06:30N 34°41' E 135°15'0 0.0
2018-Feb-16 06:00N 34°41' E 135°15'0 0.0
2018-Feb-16 05:30N 34°41' E 135°15'0 0.0
2018-Feb-16 05:00N 34°41' E 135°15'0 0.1
2018-Feb-16 04:30N 34°41' E 135°15'0 0.1
2018-Feb-16 04:00N 34°41' E 135°15'0 0.0
2018-Feb-16 03:30N 34°41' E 135°15'0 0.0
2018-Feb-16 03:00N 34°41' E 135°15'0 0.0
2018-Feb-16 02:30N 34°41' E 135°15'0 0.1
2018-Feb-16 02:00N 34°41' E 135°15'0 0.1
2018-Feb-16 01:30N 34°41' E 135°15'0 0.0
2018-Feb-16 01:00N 34°41' E 135°15'0 0.0
2018-Feb-16 00:30N 34°41' E 135°15'0 0.1
2018-Feb-16 00:00N 34°41' E 135°15'0 0.1
2018-Feb-15 23:30N 34°41' E 135°15'0 0.3
2018-Feb-15 23:00N 34°41' E 135°15'2 4.7
2018-Feb-15 22:31N 34°39' E 135°16'5 9.1
2018-Feb-15 22:00N 34°39' E 135°22'3 6.0
2018-Feb-15 21:28N 34°39' E 135°26'0 0.0
2018-Feb-15 21:00N 34°39' E 135°26'0 0.0
2018-Feb-15 20:30N 34°39' E 135°26'0 0.1
2018-Feb-15 20:00N 34°39' E 135°26'0 0.1
2018-Feb-15 19:30N 34°39' E 135°26'0 0.0
2018-Feb-15 19:00N 34°39' E 135°26'0 0.0
2018-Feb-15 18:30N 34°39' E 135°26'0 0.0
2018-Feb-15 18:00N 34°39' E 135°26'0 0.0
2018-Feb-15 17:30N 34°39' E 135°26'0 0.0
2018-Feb-15 17:00N 34°39' E 135°26'0 0.0
2018-Feb-15 16:30N 34°39' E 135°26'0 0.0
2018-Feb-15 16:00N 34°39' E 135°26'0 0.0
2018-Feb-15 15:27N 34°39' E 135°26'0 0.0
2018-Feb-15 15:00N 34°39' E 135°26'0 0.0
2018-Feb-15 14:30N 34°39' E 135°26'0 0.0
2018-Feb-15 14:00N 34°39' E 135°26'0 0.0
2018-Feb-15 13:30N 34°39' E 135°26'0 0.0
2018-Feb-15 13:00N 34°39' E 135°26'0 0.0
2018-Feb-15 12:30N 34°39' E 135°26'0 0.0
2018-Feb-15 12:00N 34°39' E 135°26'0 0.0
2018-Feb-15 11:30N 34°39' E 135°26'0 0.0
2018-Feb-15 10:58N 34°39' E 135°26'1 2.2
2018-Feb-15 10:30N 34°39' E 135°24'4 8.0
2018-Feb-15 10:01N 34°36' E 135°20'611.6
2018-Feb-15 09:30N 34°32' E 135°16'815.9
2018-Feb-15 09:01N 34°26' E 135°09'815.7
2018-Feb-15 08:30N 34°21' E 135°02'714.7
2018-Feb-15 08:01N 34°14' E 134°59'510.7
2018-Feb-15 07:30N 34°08' E 134°60'5 9.1
2018-Feb-15 07:00N 34°04' E 134°59'5 9.6
2018-Feb-15 06:30N 33°59' E 134°57'1 2.1
2018-Feb-15 06:00N 33°58' E 134°57'2 3.1
2018-Feb-15 05:30N 33°57' E 134°57'612.1
2018-Feb-15 05:00N 33°51' E 134°55'612.4
2018-Feb-15 04:31N 33°45' E 134°52'1013.0
2018-Feb-15 03:45N 33°37' E 134°45'  
2018-Feb-12 22:40N 25°36' E 121°53'314.3
2018-Feb-12 22:29N 25°35' E 121°50'714.2
2018-Feb-12 22:00N 25°32' E 121°43'1014.6
2018-Feb-12 21:21N 25°27' E 121°35'514.7
2018-Feb-12 21:00N 25°24' E 121°30'714.5
2018-Feb-12 20:30N 25°20' E 121°23'815.2
2018-Feb-12 20:00N 25°14' E 121°18'612.6
2018-Feb-12 19:30N 25°09' E 121°22'2 3.0
2018-Feb-12 19:00N 25°10' E 121°24'0 0.0
2018-Feb-12 18:24N 25°10' E 121°24'0 0.1
2018-Feb-12 18:00N 25°10' E 121°23'0 0.1
2018-Feb-12 17:30N 25°10' E 121°24'0 0.0
2018-Feb-12 16:48N 25°10' E 121°24'0 0.0
2018-Feb-12 16:27N 25°10' E 121°24'0 0.0
2018-Feb-12 15:57N 25°10' E 121°24'0 0.0
2018-Feb-12 15:18N 25°10' E 121°24'0 0.0
2018-Feb-12 15:00N 25°10' E 121°24'0 0.0
2018-Feb-12 12:21N 25°10' E 121°24'0 0.0
2018-Feb-12 11:57N 25°10' E 121°24'0 0.0
2018-Feb-12 11:30N 25°10' E 121°24'0 0.0
2018-Feb-12 10:51N 25°10' E 121°24'0 0.1
2018-Feb-12 10:21N 25°10' E 121°23'0 0.2
2018-Feb-12 10:00N 25°10' E 121°24'0 0.8
2018-Feb-12 09:30N 25°10' E 121°23'4 7.9
2018-Feb-12 08:59N 25°10' E 121°19'612.2
2018-Feb-12 08:30N 25°12' E 121°12'714.3
2018-Feb-12 08:00N 25°09' E 121°05'715.1
2018-Feb-12 07:31N 25°05' E 120°59'815.2
2018-Feb-12 07:00N 24°59' E 120°54'815.3
2018-Feb-12 06:30N 24°52' E 120°49'  
Track history (hours):
 
Tides and Currents Weather Stations Pressure Air Temp Water Temp Dewpoint Dewpoint Depression Visibility Wind Speed Wind Dir Waves Ship Positions

Wan Hai 232

Last reported at 2018-Feb-21 17:37 UTC. Time now 2018-Feb-22 18:36 UTC.
Position N 23°12' E 117°35'.

Length 191 m; draft 8.1 m.

Type: Cargo ship. MMSI: 565131000.

Date/timePositionNaut miles runAvg speedWind from/ knotsBaromVisibWave heightAir tempDewpointWater temp
2018-Feb-21 17:37N 23°12' E 117°35'616.3
2018-Feb-21 17:16N 23°15' E 117°41'516.3
2018-Feb-21 16:57N 23°17' E 117°46'916.0
2018-Feb-21 16:25N 23°21' E 117°54'184 7.7
2018-Feb-20 16:30N 24°53' E 120°49'1416.7
2018-Feb-20 15:39N 25°05' E 120°58'917.2
2018-Feb-20 15:08N 25°10' E 121°06'418.2
2018-Feb-20 14:55N 25°12' E 121°10'716.8
2018-Feb-20 14:30N 25°14' E 121°17'613.0
2018-Feb-20 14:00N 25°09' E 121°23'1 1.1
2018-Feb-20 13:27N 25°10' E 121°23'0 0.0
2018-Feb-20 12:54N 25°10' E 121°23'0 0.0
2018-Feb-20 09:36N 25°10' E 121°23'0 0.0
2018-Feb-20 09:09N 25°10' E 121°23'0 0.0
2018-Feb-20 08:48N 25°10' E 121°23'0 0.0
2018-Feb-20 08:27N 25°10' E 121°23'0 0.0
2018-Feb-20 07:54N 25°10' E 121°23'0 0.0
2018-Feb-20 07:30N 25°10' E 121°23'0 0.0
2018-Feb-20 06:57N 25°10' E 121°23'0 0.0
2018-Feb-20 06:30N 25°10' E 121°23'0 0.0
2018-Feb-20 06:00N 25°10' E 121°23'0 0.0
2018-Feb-20 05:27N 25°10' E 121°23'1 1.8
2018-Feb-20 05:00N 25°09' E 121°23'4 8.9
2018-Feb-20 04:30N 25°11' E 121°18'713.1
2018-Feb-20 03:59N 25°18' E 121°17'66316.9
2018-Feb-18 12:45N 33°40' E 129°34'617.1
2018-Feb-18 12:23N 33°40' E 129°42'717.2
2018-Feb-18 11:59N 33°40' E 129°50'817.3
2018-Feb-18 11:30N 33°40' E 129°60'917.2
2018-Feb-18 11:00N 33°44' E 130°10'713.8
2018-Feb-18 10:30N 33°40' E 130°17'510.9
2018-Feb-18 10:00N 33°39' E 130°23'1 2.4
2018-Feb-18 09:29N 33°39' E 130°24'0 0.0
2018-Feb-18 08:59N 33°39' E 130°24'0 0.0
2018-Feb-18 08:29N 33°39' E 130°24'0 0.0
2018-Feb-18 07:59N 33°39' E 130°24'0 0.0
2018-Feb-18 07:29N 33°39' E 130°24'0 0.0
2018-Feb-18 06:59N 33°39' E 130°24'0 0.0
2018-Feb-18 06:29N 33°39' E 130°24'0 0.0
2018-Feb-18 05:59N 33°39' E 130°24'0 0.0
2018-Feb-18 05:29N 33°39' E 130°24'0 0.0
2018-Feb-18 04:59N 33°39' E 130°24'0 0.0
2018-Feb-18 04:29N 33°39' E 130°24'0 0.1
2018-Feb-18 03:59N 33°39' E 130°24'0 0.1
2018-Feb-18 03:29N 33°39' E 130°24'0 0.0
2018-Feb-18 02:59N 33°39' E 130°24'0 0.0
2018-Feb-18 02:29N 33°39' E 130°24'0 0.0
2018-Feb-18 01:59N 33°39' E 130°24'0 0.0
2018-Feb-18 01:29N 33°39' E 130°24'0 0.0
2018-Feb-18 00:59N 33°39' E 130°24'0 0.0
2018-Feb-18 00:29N 33°39' E 130°24'0 0.0
2018-Feb-17 23:59N 33°39' E 130°24'0 0.0
2018-Feb-17 23:30N 33°39' E 130°24'2 3.8
2018-Feb-17 23:00N 33°38' E 130°22'5 9.8
2018-Feb-17 22:30N 33°39' E 130°16'4 8.8
2018-Feb-17 22:00N 33°43' E 130°15'0 0.9
2018-Feb-17 21:30N 33°44' E 130°15'4 7.6
2018-Feb-17 21:00N 33°47' E 130°17'713.5
2018-Feb-17 20:30N 33°54' E 130°20'713.2
2018-Feb-17 20:00N 33°58' E 130°25'713.0
2018-Feb-17 19:30N 33°60' E 130°33'713.2
2018-Feb-17 19:00N 34°02' E 130°40'612.2
2018-Feb-17 18:30N 34°03' E 130°48'612.0
2018-Feb-17 18:00N 33°58' E 130°53'4 8.2
2018-Feb-17 17:30N 33°55' E 130°54'5 9.0
2018-Feb-17 17:00N 33°58' E 130°58'2 4.1
2018-Feb-17 16:30N 33°58' E 131°00'0 0.0
2018-Feb-17 15:57N 33°58' E 131°00'0 0.0
2018-Feb-17 15:30N 33°58' E 131°00'0 0.0
2018-Feb-17 15:00N 33°58' E 131°00'0 0.0
2018-Feb-17 14:30N 33°58' E 131°00'0 0.0
2018-Feb-17 14:00N 33°58' E 131°00'0 0.0
2018-Feb-17 13:30N 33°58' E 131°00'0 0.0
2018-Feb-17 13:00N 33°58' E 131°00'0 0.0
2018-Feb-17 12:27N 33°58' E 131°00'0 0.0
2018-Feb-17 12:00N 33°58' E 131°00'0 0.0
2018-Feb-17 11:30N 33°58' E 131°00'0 0.0
2018-Feb-17 11:00N 33°58' E 131°00'0 0.0
2018-Feb-17 10:30N 33°58' E 131°00'0 0.0
2018-Feb-17 10:00N 33°58' E 131°00'0 0.0
2018-Feb-17 09:30N 33°58' E 131°00'0 0.0
2018-Feb-17 09:00N 33°58' E 131°00'0 0.0
2018-Feb-17 08:27N 33°58' E 131°00'0 0.1
2018-Feb-17 08:00N 33°58' E 131°00'2 4.8
2018-Feb-17 07:30N 33°57' E 131°03'4 8.9
2018-Feb-17 07:00N 33°54' E 131°07'5 9.3
2018-Feb-17 06:30N 33°52' E 131°12'613.0
2018-Feb-17 06:00N 33°51' E 131°20'715.0
2018-Feb-17 05:30N 33°49' E 131°28'714.5
2018-Feb-17 05:00N 33°47' E 131°37'713.4
2018-Feb-17 04:30N 33°44' E 131°44'713.9
2018-Feb-17 04:00N 33°38' E 131°48'714.0
2018-Feb-17 03:31N 33°32' E 131°52'714.5
2018-Feb-17 03:00N 33°25' E 131°56'713.9
2018-Feb-17 02:31N 33°19' E 131°59'714.7
2018-Feb-17 02:00N 33°13' E 132°05'6512.6
2018-Feb-16 20:51N 32°45' E 133°15'8816.1
2018-Feb-16 15:22N 33°37' E 134°40'616.8
2018-Feb-16 15:00N 33°42' E 134°45'917.1
2018-Feb-16 14:30N 33°48' E 134°51'816.8
2018-Feb-16 14:00N 33°56' E 134°54'816.6
2018-Feb-16 13:30N 34°04' E 134°56'816.2
2018-Feb-16 13:00N 34°12' E 134°58'510.9
2018-Feb-16 12:30N 34°18' E 134°59'713.7
2018-Feb-16 12:00N 34°24' E 135°03'816.3
2018-Feb-16 11:31N 34°29' E 135°10'816.4
2018-Feb-16 11:01N 34°36' E 135°16'510.2
2018-Feb-16 10:30N 34°41' E 135°15'0 0.0
2018-Feb-16 10:00N 34°41' E 135°15'0 0.1
2018-Feb-16 09:30N 34°41' E 135°15'0 0.0
2018-Feb-16 09:00N 34°41' E 135°15'0 0.0
2018-Feb-16 08:30N 34°41' E 135°15'0 0.1
2018-Feb-16 08:00N 34°41' E 135°15'0 0.1
2018-Feb-16 07:30N 34°41' E 135°15'0 0.0
2018-Feb-16 07:00N 34°41' E 135°15'0 0.0
2018-Feb-16 06:30N 34°41' E 135°15'0 0.0
2018-Feb-16 06:00N 34°41' E 135°15'0 0.0
2018-Feb-16 05:30N 34°41' E 135°15'0 0.0
2018-Feb-16 05:00N 34°41' E 135°15'0 0.1
2018-Feb-16 04:30N 34°41' E 135°15'0 0.1
2018-Feb-16 04:00N 34°41' E 135°15'0 0.0
2018-Feb-16 03:30N 34°41' E 135°15'0 0.0
2018-Feb-16 03:00N 34°41' E 135°15'0 0.0
2018-Feb-16 02:30N 34°41' E 135°15'0 0.1
2018-Feb-16 02:00N 34°41' E 135°15'0 0.1
2018-Feb-16 01:30N 34°41' E 135°15'0 0.0
2018-Feb-16 01:00N 34°41' E 135°15'0 0.0
2018-Feb-16 00:30N 34°41' E 135°15'0 0.1
2018-Feb-16 00:00N 34°41' E 135°15'0 0.1
2018-Feb-15 23:30N 34°41' E 135°15'0 0.3
2018-Feb-15 23:00N 34°41' E 135°15'2 4.7
2018-Feb-15 22:31N 34°39' E 135°16'5 9.1
2018-Feb-15 22:00N 34°39' E 135°22'3 6.0
2018-Feb-15 21:28N 34°39' E 135°26'0 0.0
2018-Feb-15 21:00N 34°39' E 135°26'0 0.0
2018-Feb-15 20:30N 34°39' E 135°26'0 0.1
2018-Feb-15 20:00N 34°39' E 135°26'0 0.1
2018-Feb-15 19:30N 34°39' E 135°26'0 0.0
2018-Feb-15 19:00N 34°39' E 135°26'0 0.0
2018-Feb-15 18:30N 34°39' E 135°26'0 0.0
2018-Feb-15 18:00N 34°39' E 135°26'0 0.0
2018-Feb-15 17:30N 34°39' E 135°26'0 0.0
2018-Feb-15 17:00N 34°39' E 135°26'0 0.0
2018-Feb-15 16:30N 34°39' E 135°26'0 0.0
2018-Feb-15 16:00N 34°39' E 135°26'0 0.0
2018-Feb-15 15:27N 34°39' E 135°26'0 0.0
2018-Feb-15 15:00N 34°39' E 135°26'0 0.0
2018-Feb-15 14:30N 34°39' E 135°26'0 0.0
2018-Feb-15 14:00N 34°39' E 135°26'0 0.0
2018-Feb-15 13:30N 34°39' E 135°26'0 0.0
2018-Feb-15 13:00N 34°39' E 135°26'0 0.0
2018-Feb-15 12:30N 34°39' E 135°26'0 0.0
2018-Feb-15 12:00N 34°39' E 135°26'0 0.0
2018-Feb-15 11:30N 34°39' E 135°26'0 0.0
2018-Feb-15 10:58N 34°39' E 135°26'1 2.2
2018-Feb-15 10:30N 34°39' E 135°24'4 8.0
2018-Feb-15 10:01N 34°36' E 135°20'611.6
2018-Feb-15 09:30N 34°32' E 135°16'815.9
2018-Feb-15 09:01N 34°26' E 135°09'815.7
2018-Feb-15 08:30N 34°21' E 135°02'714.7
2018-Feb-15 08:01N 34°14' E 134°59'510.7
2018-Feb-15 07:30N 34°08' E 134°60'5 9.1
2018-Feb-15 07:00N 34°04' E 134°59'5 9.6
2018-Feb-15 06:30N 33°59' E 134°57'1 2.1
2018-Feb-15 06:00N 33°58' E 134°57'2 3.1
2018-Feb-15 05:30N 33°57' E 134°57'612.1
2018-Feb-15 05:00N 33°51' E 134°55'612.4
2018-Feb-15 04:31N 33°45' E 134°52'1013.0
2018-Feb-15 03:45N 33°37' E 134°45'  
2018-Feb-12 22:40N 25°36' E 121°53'314.3
2018-Feb-12 22:29N 25°35' E 121°50'714.2
2018-Feb-12 22:00N 25°32' E 121°43'1014.6
2018-Feb-12 21:21N 25°27' E 121°35'514.7
2018-Feb-12 21:00N 25°24' E 121°30'714.5
2018-Feb-12 20:30N 25°20' E 121°23'815.2
2018-Feb-12 20:00N 25°14' E 121°18'612.6
2018-Feb-12 19:30N 25°09' E 121°22'2 3.0
2018-Feb-12 19:00N 25°10' E 121°24'0 0.0
2018-Feb-12 18:24N 25°10' E 121°24'0 0.1
2018-Feb-12 18:00N 25°10' E 121°23'0 0.1
2018-Feb-12 17:30N 25°10' E 121°24'0 0.0
2018-Feb-12 16:48N 25°10' E 121°24'0 0.0
2018-Feb-12 16:27N 25°10' E 121°24'0 0.0
2018-Feb-12 15:57N 25°10' E 121°24'0 0.0
2018-Feb-12 15:18N 25°10' E 121°24'0 0.0
2018-Feb-12 15:00N 25°10' E 121°24'0 0.0
2018-Feb-12 12:21N 25°10' E 121°24'0 0.0
2018-Feb-12 11:57N 25°10' E 121°24'0 0.0
2018-Feb-12 11:30N 25°10' E 121°24'0 0.0
2018-Feb-12 10:51N 25°10' E 121°24'0 0.1
2018-Feb-12 10:21N 25°10' E 121°23'0 0.2
2018-Feb-12 10:00N 25°10' E 121°24'0 0.8
2018-Feb-12 09:30N 25°10' E 121°23'4 7.9
2018-Feb-12 08:59N 25°10' E 121°19'612.2
2018-Feb-12 08:30N 25°12' E 121°12'714.3
2018-Feb-12 08:00N 25°09' E 121°05'715.1
2018-Feb-12 07:31N 25°05' E 120°59'815.2
2018-Feb-12 07:00N 24°59' E 120°54'815.3
2018-Feb-12 06:30N 24°52' E 120°49'  

Dump ship's entire track history